Madison Heights, VA (24572)

3:23 AM EDT on May 24, 2015 (GMT -0400)
Lakeview | | Change Station
CLOSE
Current Station
Personal Weather Station
Location: Madison Heights, VA
Elevation: 712 ft
Nearby Weather Stations

Elev 712 ft 37.43 °N, 79.11 °W | Updated 10 seconds ago

Clear
Clear
51.6 °F
Feels Like 51.6 °F
N
0.0
Wind Variable Wind from WSW
Gusts 0.0 mph

Today
High -- | Low -- °F
--% Chance of Precip.
Yesterday
High -- | Low -- °F
Precip. -- in
6:01 AM 8:25 PM
Waxing Crescent, 37% visible
Pressure 30.37 in
Visibility 10.0 miles
Clouds Clear
Dew Point 50 °F
Humidity 93%
Rainfall 0.00 in
Snow Depth Not available.
UV 0 out of 12
Pollen 7.70 out of 12
Air Quality Not available.
Flu Activity No Activity
METAR KLYH 240654Z AUTO 00000KT 10SM CLR 11/09 A3038 RMK AO2 SLP284 T01060094

More Conditions Fewer Conditions

Pressure 30.37 in
Visibility 10.0 miles
Clouds Clear
Dew Point 50 °F
Humidity 93%
Rainfall 0.00 in
Snow Depth Not available.
UV 0 out of 12
Pollen 7.70 out of 12
Air Quality Not available.
Flu Activity No Activity
METAR KLYH 240654Z AUTO 00000KT 10SM CLR 11/09 A3038 RMK AO2 SLP284 T01060094

More Conditions Fewer Conditions

10-Day Weather Forecast

Almanac

Astronomy

May. 24, 2015 Rise Set
Actual Time
Civil Twilight
Nautical Twilight
Astronomical Twilight
Moon
Length of Visible Light
Length of Day
Tomorrow will be .
, % of the Moon is Illuminated

Today's Extremes

State Highs State Lows

Community

WunderPhotos

Upload Photos

1,823,698 photos uploaded!

WunderBlogs® & News

Nearby

Air Quality

  Air Quality AQ Index Pollutant
Not available.

Snow Depth

Station Depth Elevation

Earthquake Activity

City Distance Mag. Time & Date
Minimum magnitude displayed is 2.5.

Coastal Water Temperatures

Place Temperature

Stations

Nearby Weather Stations

Station Location Temp. Windchill Dew Point Humidity Wind Precip. Elev Updated Type